sensor_id;sensor_type;location;lat;lon;timestamp;pressure;altitude;pressure_sealevel;temperature;humidity
45345;BME280;31078;48.304;11.896;2022-08-25T00:00:25;96433.47;;;17.68;84.20
45345;BME280;31078;48.304;11.896;2022-08-25T00:02:53;96436.44;;;17.59;84.11
45345;BME280;31078;48.304;11.896;2022-08-25T00:05:20;96429.69;;;17.57;84.33
45345;BME280;31078;48.304;11.896;2022-08-25T00:07:46;96421.81;;;17.55;84.54
45345;BME280;31078;48.304;11.896;2022-08-25T00:10:13;96428.47;;;17.54;84.88
45345;BME280;31078;48.304;11.896;2022-08-25T00:12:41;96416.56;;;17.50;85.16
45345;BME280;31078;48.304;11.896;2022-08-25T00:15:08;96418.81;;;17.44;85.56
45345;BME280;31078;48.304;11.896;2022-08-25T00:17:35;96410.84;;;17.39;85.89
45345;BME280;31078;48.304;11.896;2022-08-25T00:20:03;96415.47;;;17.35;86.21
45345;BME280;31078;48.304;11.896;2022-08-25T00:22:30;96419.38;;;17.34;86.52
45345;BME280;31078;48.304;11.896;2022-08-25T00:24:57;96417.25;;;17.28;86.61
45345;BME280;31078;48.304;11.896;2022-08-25T00:27:23;96416.91;;;17.29;87.24
45345;BME280;31078;48.304;11.896;2022-08-25T00:29:51;96414.16;;;17.29;87.47
45345;BME280;31078;48.304;11.896;2022-08-25T00:32:17;96408.16;;;17.24;87.54
45345;BME280;31078;48.304;11.896;2022-08-25T00:34:44;96412.03;;;17.22;87.94
45345;BME280;31078;48.304;11.896;2022-08-25T00:37:10;96419.06;;;17.20;87.78
45345;BME280;31078;48.304;11.896;2022-08-25T00:39:38;96411.25;;;17.22;87.96
45345;BME280;31078;48.304;11.896;2022-08-25T00:42:06;96423.91;;;17.27;87.96
45345;BME280;31078;48.304;11.896;2022-08-25T00:44:34;96416.47;;;17.27;87.50
45345;BME280;31078;48.304;11.896;2022-08-25T00:47:04;96415.75;;;17.30;86.78
45345;BME280;31078;48.304;11.896;2022-08-25T00:49:32;96415.75;;;17.30;86.82
45345;BME280;31078;48.304;11.896;2022-08-25T00:52:03;96419.38;;;17.34;87.14
45345;BME280;31078;48.304;11.896;2022-08-25T00:54:32;96405.16;;;17.32;86.34
45345;BME280;31078;48.304;11.896;2022-08-25T00:57:00;96409.09;;;17.31;86.27
45345;BME280;31078;48.304;11.896;2022-08-25T00:59:28;96408.66;;;17.29;86.13
45345;BME280;31078;48.304;11.896;2022-08-25T01:01:55;96400.03;;;17.31;86.64
45345;BME280;31078;48.304;11.896;2022-08-25T01:04:24;96402.09;;;17.34;86.64
45345;BME280;31078;48.304;11.896;2022-08-25T01:06:51;96405.16;;;17.32;86.13
45345;BME280;31078;48.304;11.896;2022-08-25T01:09:18;96403.59;;;17.31;85.86
45345;BME280;31078;48.304;11.896;2022-08-25T01:11:46;96401.56;;;17.28;86.02
45345;BME280;31078;48.304;11.896;2022-08-25T01:14:16;96403.59;;;17.31;86.54
45345;BME280;31078;48.304;11.896;2022-08-25T01:16:44;96406.34;;;17.31;86.25
45345;BME280;31078;48.304;11.896;2022-08-25T01:19:12;96401.91;;;17.27;86.20
45345;BME280;31078;48.304;11.896;2022-08-25T01:21:43;96402.28;;;17.25;86.89
45345;BME280;31078;48.304;11.896;2022-08-25T01:24:13;96399.94;;;17.27;86.92
45345;BME280;31078;48.304;11.896;2022-08-25T01:26:41;96401.13;;;17.26;86.34
45345;BME280;31078;48.304;11.896;2022-08-25T01:29:08;96395.53;;;17.22;85.89
45345;BME280;31078;48.304;11.896;2022-08-25T01:31:52;96400.97;;;17.19;85.79
45345;BME280;31078;48.304;11.896;2022-08-25T01:34:20;96391.47;;;17.16;85.84
45345;BME280;31078;48.304;11.896;2022-08-25T01:36:49;96392.25;;;17.17;85.77
45345;BME280;31078;48.304;11.896;2022-08-25T01:39:15;96392.25;;;17.17;86.04
45345;BME280;31078;48.304;11.896;2022-08-25T01:41:53;96395.28;;;17.12;85.67
45345;BME280;31078;48.304;11.896;2022-08-25T01:44:20;96393.09;;;17.02;85.51
45345;BME280;31078;48.304;11.896;2022-08-25T01:46:46;96390.19;;;16.94;85.78
45345;BME280;31078;48.304;11.896;2022-08-25T01:49:13;96389.41;;;16.94;86.86
45345;BME280;31078;48.304;11.896;2022-08-25T01:51:43;96387.06;;;16.96;86.96
45345;BME280;31078;48.304;11.896;2022-08-25T01:54:13;96383.19;;;16.97;87.01
45345;BME280;31078;48.304;11.896;2022-08-25T01:56:40;96393.03;;;16.98;87.19
45345;BME280;31078;48.304;11.896;2022-08-25T01:59:06;96386.00;;;17.01;87.74
45345;BME280;31078;48.304;11.896;2022-08-25T02:01:33;96393.56;;;17.04;88.22
45345;BME280;31078;48.304;11.896;2022-08-25T02:03:59;96394.84;;;17.10;88.66
45345;BME280;31078;48.304;11.896;2022-08-25T02:06:28;96404.00;;;17.14;88.98
45345;BME280;31078;48.304;11.896;2022-08-25T02:08:59;96397.34;;;17.15;88.40
45345;BME280;31078;48.304;11.896;2022-08-25T02:11:27;96391.56;;;17.20;89.01
45345;BME280;31078;48.304;11.896;2022-08-25T02:13:54;96400.22;;;17.22;88.54
45345;BME280;31078;48.304;11.896;2022-08-25T02:16:24;96388.44;;;17.21;87.74
45345;BME280;31078;48.304;11.896;2022-08-25T02:18:52;96384.88;;;17.21;87.70
45345;BME280;31078;48.304;11.896;2022-08-25T02:21:19;96383.22;;;17.16;87.80
45345;BME280;31078;48.304;11.896;2022-08-25T02:23:45;96378.94;;;17.19;88.19
45345;BME280;31078;48.304;11.896;2022-08-25T02:26:13;96384.47;;;17.19;88.33
45345;BME280;31078;48.304;11.896;2022-08-25T02:28:42;96379.38;;;17.21;88.51
45345;BME280;31078;48.304;11.896;2022-08-25T02:31:08;96381.84;;;17.26;88.42
45345;BME280;31078;48.304;11.896;2022-08-25T02:33:35;96381.41;;;17.24;87.45
45345;BME280;31078;48.304;11.896;2022-08-25T02:36:02;96383.00;;;17.25;87.37
45345;BME280;31078;48.304;11.896;2022-08-25T02:38:30;96380.69;;;17.27;87.50
45345;BME280;31078;48.304;11.896;2022-08-25T02:40:58;96380.69;;;17.27;87.43
45345;BME280;31078;48.304;11.896;2022-08-25T02:43:26;96377.13;;;17.27;86.75
45345;BME280;31078;48.304;11.896;2022-08-25T02:45:54;96377.50;;;17.25;87.13
45345;BME280;31078;48.304;11.896;2022-08-25T02:48:21;96375.13;;;17.24;86.98
45345;BME280;31078;48.304;11.896;2022-08-25T02:50:50;96373.88;;;17.21;87.28
45345;BME280;31078;48.304;11.896;2022-08-25T02:53:17;96378.94;;;17.19;86.85
45345;BME280;31078;48.304;11.896;2022-08-25T02:55:44;96372.13;;;17.13;87.17
45345;BME280;31078;48.304;11.896;2022-08-25T02:58:10;96376.41;;;17.10;87.36
45345;BME280;31078;48.304;11.896;2022-08-25T03:00:37;96373.13;;;17.05;87.31
45345;BME280;31078;48.304;11.896;2022-08-25T03:03:05;96370.66;;;17.00;87.14
45345;BME280;31078;48.304;11.896;2022-08-25T03:05:32;96361.81;;;16.90;87.24
45345;BME280;31078;48.304;11.896;2022-08-25T03:07:58;96361.28;;;16.85;87.17
45345;BME280;31078;48.304;11.896;2022-08-25T03:10:25;96369.47;;;16.81;87.53
45345;BME280;31078;48.304;11.896;2022-08-25T03:12:52;96367.84;;;16.80;87.85
45345;BME280;31078;48.304;11.896;2022-08-25T03:15:18;96367.53;;;16.82;87.75
45345;BME280;31078;48.304;11.896;2022-08-25T03:17:46;96363.97;;;16.81;87.90
45345;BME280;31078;48.304;11.896;2022-08-25T03:20:14;96366.25;;;16.79;87.93
45345;BME280;31078;48.304;11.896;2022-08-25T03:22:41;96360.06;;;16.82;88.16
45345;BME280;31078;48.304;11.896;2022-08-25T03:25:09;96353.75;;;16.82;87.95
45345;BME280;31078;48.304;11.896;2022-08-25T03:27:53;96358.09;;;16.83;88.28
45345;BME280;31078;48.304;11.896;2022-08-25T03:30:20;96358.53;;;16.85;88.58
45345;BME280;31078;48.304;11.896;2022-08-25T03:32:47;96364.81;;;16.85;88.74
45345;BME280;31078;48.304;11.896;2022-08-25T03:35:15;96359.31;;;16.85;88.82
45345;BME280;31078;48.304;11.896;2022-08-25T03:37:41;96366.44;;;16.86;88.79
45345;BME280;31078;48.304;11.896;2022-08-25T03:40:10;96361.81;;;16.90;88.83
45345;BME280;31078;48.304;11.896;2022-08-25T03:42:39;96360.94;;;16.86;88.18
45345;BME280;31078;48.304;11.896;2022-08-25T03:45:08;96358.53;;;16.85;88.28
45345;BME280;31078;48.304;11.896;2022-08-25T03:47:35;96364.81;;;16.85;88.48
45345;BME280;31078;48.304;11.896;2022-08-25T03:50:03;96366.00;;;16.84;88.38
45345;BME280;31078;48.304;11.896;2022-08-25T03:52:31;96362.44;;;16.84;88.55
45345;BME280;31078;48.304;11.896;2022-08-25T03:54:57;96356.16;;;16.83;88.87
45345;BME280;31078;48.304;11.896;2022-08-25T03:57:24;96352.25;;;16.84;88.62
45345;BME280;31078;48.304;11.896;2022-08-25T03:59:50;96360.06;;;16.82;88.69
45345;BME280;31078;48.304;11.896;2022-08-25T04:02:17;96350.22;;;16.81;88.64
45345;BME280;31078;48.304;11.896;2022-08-25T04:04:44;96355.34;;;16.83;88.63
45345;BME280;31078;48.304;11.896;2022-08-25T04:07:10;96348.19;;;16.78;88.53
45345;BME280;31078;48.304;11.896;2022-08-25T04:09:38;96346.59;;;16.77;88.83
45345;BME280;31078;48.304;11.896;2022-08-25T04:12:05;96348.97;;;16.79;89.19
45345;BME280;31078;48.304;11.896;2022-08-25T04:14:32;96354.56;;;16.82;88.64
45345;BME280;31078;48.304;11.896;2022-08-25T04:16:58;96350.56;;;16.80;88.88
45345;BME280;31078;48.304;11.896;2022-08-25T04:19:25;96350.66;;;16.83;89.18
45345;BME280;31078;48.304;11.896;2022-08-25T04:21:51;96356.84;;;16.80;88.62
45345;BME280;31078;48.304;11.896;2022-08-25T04:24:19;96354.09;;;16.80;88.51
45345;BME280;31078;48.304;11.896;2022-08-25T04:26:49;96352.09;;;16.77;87.78
45345;BME280;31078;48.304;11.896;2022-08-25T04:29:20;96350.03;;;16.74;88.05
45345;BME280;31078;48.304;11.896;2022-08-25T04:31:47;96351.88;;;16.70;87.82
45345;BME280;31078;48.304;11.896;2022-08-25T04:34:15;96356.56;;;16.69;87.86
45345;BME280;31078;48.304;11.896;2022-08-25T04:36:43;96360.50;;;16.68;88.41
45345;BME280;31078;48.304;11.896;2022-08-25T04:39:09;96355.78;;;16.69;88.47
45345;BME280;31078;48.304;11.896;2022-08-25T04:41:36;96356.94;;;16.68;88.38
45345;BME280;31078;48.304;11.896;2022-08-25T04:44:06;96354.09;;;16.64;88.13
45345;BME280;31078;48.304;11.896;2022-08-25T04:46:33;96365.47;;;16.63;88.29
45345;BME280;31078;48.304;11.896;2022-08-25T04:49:01;96362.72;;;16.63;88.16
45345;BME280;31078;48.304;11.896;2022-08-25T04:51:30;96364.50;;;16.55;88.09
45345;BME280;31078;48.304;11.896;2022-08-25T04:53:58;96365.63;;;16.54;88.04
45345;BME280;31078;48.304;11.896;2022-08-25T04:56:27;96361.66;;;16.52;88.21
45345;BME280;31078;48.304;11.896;2022-08-25T04:58:54;96366.28;;;16.48;87.74
45345;BME280;31078;48.304;11.896;2022-08-25T05:01:24;96364.53;;;16.39;87.31
45345;BME280;31078;48.304;11.896;2022-08-25T05:03:52;96360.88;;;16.35;87.66
45345;BME280;31078;48.304;11.896;2022-08-25T05:06:19;96362.03;;;16.34;87.81
45345;BME280;31078;48.304;11.896;2022-08-25T05:08:46;96360.50;;;16.37;88.35
45345;BME280;31078;48.304;11.896;2022-08-25T05:11:14;96360.41;;;16.33;88.34
45345;BME280;31078;48.304;11.896;2022-08-25T05:13:43;96358.03;;;16.32;88.79
45345;BME280;31078;48.304;11.896;2022-08-25T05:16:10;96360.41;;;16.33;89.29
45345;BME280;31078;48.304;11.896;2022-08-25T05:18:38;96355.81;;;16.37;89.69
45345;BME280;31078;48.304;11.896;2022-08-25T05:21:06;96355.81;;;16.37;89.44
45345;BME280;31078;48.304;11.896;2022-08-25T05:23:33;96349.97;;;16.39;89.70
45345;BME280;31078;48.304;11.896;2022-08-25T05:26:03;96361.50;;;16.44;90.21
45345;BME280;31078;48.304;11.896;2022-08-25T05:28:30;96353.31;;;16.48;90.66
45345;BME280;31078;48.304;11.896;2022-08-25T05:30:58;96366.44;;;16.55;91.01
45345;BME280;31078;48.304;11.896;2022-08-25T05:33:25;96353.16;;;16.57;90.55
45345;BME280;31078;48.304;11.896;2022-08-25T05:35:53;96351.72;;;16.63;91.31
45345;BME280;31078;48.304;11.896;2022-08-25T05:38:21;96351.88;;;16.70;92.25
45345;BME280;31078;48.304;11.896;2022-08-25T05:40:51;96352.25;;;16.53;92.22
45345;BME280;31078;48.304;11.896;2022-08-25T05:43:17;96339.94;;;16.62;92.43
45345;BME280;31078;48.304;11.896;2022-08-25T05:45:44;96344.25;;;16.79;91.87
45345;BME280;31078;48.304;11.896;2022-08-25T05:48:10;96346.75;;;16.84;91.56
45345;BME280;31078;48.304;11.896;2022-08-25T05:50:37;96340.97;;;16.89;91.08
45345;BME280;31078;48.304;11.896;2022-08-25T05:53:05;96342.13;;;16.88;91.56
45345;BME280;31078;48.304;11.896;2022-08-25T05:55:31;96337.00;;;17.06;91.22
45345;BME280;31078;48.304;11.896;2022-08-25T05:57:58;96346.03;;;17.07;90.71
45345;BME280;31078;48.304;11.896;2022-08-25T06:00:25;96346.81;;;17.23;90.34
45345;BME280;31078;48.304;11.896;2022-08-25T06:02:51;96348.13;;;17.29;90.37
45345;BME280;31078;48.304;11.896;2022-08-25T06:05:21;96350.00;;;17.44;90.23
45345;BME280;31078;48.304;11.896;2022-08-25T06:08:09;96350.44;;;17.46;90.07
45345;BME280;31078;48.304;11.896;2022-08-25T06:10:37;96344.03;;;17.42;90.21
45345;BME280;31078;48.304;11.896;2022-08-25T06:13:04;96346.50;;;17.47;90.29
45345;BME280;31078;48.304;11.896;2022-08-25T06:15:30;96347.31;;;17.48;90.39
45345;BME280;31078;48.304;11.896;2022-08-25T06:18:24;96351.81;;;17.56;90.39
45345;BME280;31078;48.304;11.896;2022-08-25T06:23:28;96346.44;;;17.63;90.18
45345;BME280;31078;48.304;11.896;2022-08-25T06:25:55;96345.53;;;17.75;90.17
45345;BME280;31078;48.304;11.896;2022-08-25T06:28:30;96348.97;;;17.91;89.72
45345;BME280;31078;48.304;11.896;2022-08-25T06:30:58;96339.72;;;18.03;89.43
45345;BME280;31078;48.304;11.896;2022-08-25T06:33:25;96332.06;;;18.16;88.87
45345;BME280;31078;48.304;11.896;2022-08-25T06:35:54;96328.91;;;18.14;88.23
45345;BME280;31078;48.304;11.896;2022-08-25T06:38:21;96339.41;;;18.31;88.25
45345;BME280;31078;48.304;11.896;2022-08-25T06:40:50;96336.34;;;18.36;87.24
45345;BME280;31078;48.304;11.896;2022-08-25T06:43:17;96342.09;;;18.50;86.83
45345;BME280;31078;48.304;11.896;2022-08-25T06:45:44;96338.31;;;18.59;86.76
45345;BME280;31078;48.304;11.896;2022-08-25T06:48:13;96340.88;;;18.71;86.58
45345;BME280;31078;48.304;11.896;2022-08-25T06:50:40;96333.06;;;18.76;85.90
45345;BME280;31078;48.304;11.896;2022-08-25T06:53:07;96329.31;;;18.88;85.64
45345;BME280;31078;48.304;11.896;2022-08-25T06:55:34;96336.47;;;18.93;84.79
45345;BME280;31078;48.304;11.896;2022-08-25T06:58:10;96341.94;;;18.89;84.45
45345;BME280;31078;48.304;11.896;2022-08-25T07:00:41;96335.34;;;18.97;84.43
45345;BME280;31078;48.304;11.896;2022-08-25T07:03:08;96337.16;;;19.13;84.41
45345;BME280;31078;48.304;11.896;2022-08-25T07:05:35;96339.13;;;19.16;84.29
45345;BME280;31078;48.304;11.896;2022-08-25T07:08:05;96344.06;;;19.29;84.74
45345;BME280;31078;48.304;11.896;2022-08-25T07:10:32;96344.19;;;19.40;83.28
45345;BME280;31078;48.304;11.896;2022-08-25T07:12:59;96338.13;;;19.58;83.59
45345;BME280;31078;48.304;11.896;2022-08-25T07:15:36;96347.13;;;19.54;82.78
45345;BME280;31078;48.304;11.896;2022-08-25T07:18:04;96341.81;;;19.69;82.19
45345;BME280;31078;48.304;11.896;2022-08-25T07:20:34;96345.00;;;19.71;81.73
45345;BME280;31078;48.304;11.896;2022-08-25T07:23:01;96341.47;;;19.74;81.73
45345;BME280;31078;48.304;11.896;2022-08-25T07:25:28;96339.88;;;19.73;81.70
45345;BME280;31078;48.304;11.896;2022-08-25T07:27:55;96335.28;;;19.84;81.42
45345;BME280;31078;48.304;11.896;2022-08-25T07:30:22;96334.66;;;20.01;80.39
45345;BME280;31078;48.304;11.896;2022-08-25T07:32:50;96337.19;;;20.17;79.19
45345;BME280;31078;48.304;11.896;2022-08-25T07:35:18;96333.41;;;20.36;78.81
45345;BME280;31078;48.304;11.896;2022-08-25T07:37:49;96336.09;;;20.73;75.92
45345;BME280;31078;48.304;11.896;2022-08-25T07:40:19;96335.25;;;21.28;74.75
45345;BME280;31078;48.304;11.896;2022-08-25T07:42:48;96338.66;;;21.80;71.92
45345;BME280;31078;48.304;11.896;2022-08-25T07:45:16;96336.78;;;22.20;70.39
45345;BME280;31078;48.304;11.896;2022-08-25T07:47:43;96335.63;;;22.53;68.70
45345;BME280;31078;48.304;11.896;2022-08-25T07:50:13;96336.41;;;22.78;67.42
45345;BME280;31078;48.304;11.896;2022-08-25T07:52:46;96337.59;;;22.99;67.00
45345;BME280;31078;48.304;11.896;2022-08-25T07:55:13;96342.69;;;23.22;65.79
45345;BME280;31078;48.304;11.896;2022-08-25T07:57:53;96335.09;;;23.47;65.38
45345;BME280;31078;48.304;11.896;2022-08-25T08:02:56;96333.47;;;23.60;64.60
45345;BME280;31078;48.304;11.896;2022-08-25T08:05:26;96335.81;;;23.73;64.27
45345;BME280;31078;48.304;11.896;2022-08-25T08:10:19;96337.41;;;23.70;62.56
45345;BME280;31078;48.304;11.896;2022-08-25T08:15:22;96336.03;;;24.03;62.23
45345;BME280;31078;48.304;11.896;2022-08-25T08:17:48;96335.66;;;24.01;62.56
45345;BME280;31078;48.304;11.896;2022-08-25T08:20:15;96335.56;;;24.15;64.10
45345;BME280;31078;48.304;11.896;2022-08-25T08:25:19;96324.97;;;24.55;62.79
45345;BME280;31078;48.304;11.896;2022-08-25T08:27:46;96331.25;;;24.66;60.77
45345;BME280;31078;48.304;11.896;2022-08-25T08:30:15;96335.16;;;24.72;60.17
45345;BME280;31078;48.304;11.896;2022-08-25T08:32:42;96329.56;;;24.80;60.71
45345;BME280;31078;48.304;11.896;2022-08-25T08:35:29;96326.78;;;24.80;59.18
45345;BME280;31078;48.304;11.896;2022-08-25T08:37:55;96323.97;;;24.80;59.64
45345;BME280;31078;48.304;11.896;2022-08-25T08:40:24;96315.69;;;24.72;59.70
45345;BME280;31078;48.304;11.896;2022-08-25T08:46:08;96320.22;;;24.52;60.51
45345;BME280;31078;48.304;11.896;2022-08-25T08:48:54;96325.25;;;24.68;61.96
45345;BME280;31078;48.304;11.896;2022-08-25T08:51:29;96325.69;;;24.66;60.04
45345;BME280;31078;48.304;11.896;2022-08-25T08:54:01;96327.31;;;24.60;60.51
45345;BME280;31078;48.304;11.896;2022-08-25T08:56:37;96328.13;;;24.57;60.51
45345;BME280;31078;48.304;11.896;2022-08-25T08:59:10;96324.22;;;24.51;61.66
45345;BME280;31078;48.304;11.896;2022-08-25T09:01:41;96313.41;;;24.60;62.33
45345;BME280;31078;48.304;11.896;2022-08-25T09:04:13;96310.41;;;24.37;60.85
45345;BME280;31078;48.304;11.896;2022-08-25T09:06:43;96305.72;;;24.19;61.37
45345;BME280;31078;48.304;11.896;2022-08-25T09:09:12;96305.38;;;24.10;61.93
45345;BME280;31078;48.304;11.896;2022-08-25T09:11:55;96307.31;;;24.20;62.92
45345;BME280;31078;48.304;11.896;2022-08-25T09:14:41;96301.81;;;24.13;62.83
45345;BME280;31078;48.304;11.896;2022-08-25T09:17:18;96303.81;;;24.09;63.00
45345;BME280;31078;48.304;11.896;2022-08-25T09:20:02;96306.53;;;24.20;62.68
45345;BME280;31078;48.304;11.896;2022-08-25T09:22:42;96303.25;;;24.36;64.38
45345;BME280;31078;48.304;11.896;2022-08-25T09:25:19;96299.78;;;24.17;62.14
45345;BME280;31078;48.304;11.896;2022-08-25T09:32:59;96300.06;;;23.71;63.33
45345;BME280;31078;48.304;11.896;2022-08-25T09:40:41;96297.69;;;23.69;64.37
45345;BME280;31078;48.304;11.896;2022-08-25T09:48:26;96292.19;;;23.55;67.68
45345;BME280;31078;48.304;11.896;2022-08-25T09:51:11;96282.53;;;23.81;67.43
45345;BME280;31078;48.304;11.896;2022-08-25T09:53:49;96280.00;;;24.05;65.67
45345;BME280;31078;48.304;11.896;2022-08-25T09:56:18;96276.00;;;24.09;65.10
45345;BME280;31078;48.304;11.896;2022-08-25T09:58:45;96282.28;;;24.20;63.82
45345;BME280;31078;48.304;11.896;2022-08-25T10:01:14;96277.41;;;24.35;63.76
45345;BME280;31078;48.304;11.896;2022-08-25T10:06:17;96277.03;;;24.78;63.33
45345;BME280;31078;48.304;11.896;2022-08-25T10:08:52;96276.78;;;25.03;59.31
45345;BME280;31078;48.304;11.896;2022-08-25T10:11:34;96284.56;;;25.22;59.04
45345;BME280;31078;48.304;11.896;2022-08-25T10:14:06;96281.97;;;25.39;58.84
45345;BME280;31078;48.304;11.896;2022-08-25T10:16:37;96275.09;;;25.47;56.42
45345;BME280;31078;48.304;11.896;2022-08-25T10:19:07;96269.03;;;25.56;56.66
45345;BME280;31078;48.304;11.896;2022-08-25T10:21:37;96267.31;;;25.65;57.11
45345;BME280;31078;48.304;11.896;2022-08-25T10:24:05;96269.25;;;25.68;57.35
45345;BME280;31078;48.304;11.896;2022-08-25T10:26:45;96268.75;;;25.77;55.44
45345;BME280;31078;48.304;11.896;2022-08-25T10:29:25;96261.03;;;25.88;57.40
45345;BME280;31078;48.304;11.896;2022-08-25T10:31:59;96264.13;;;25.94;55.71
45345;BME280;31078;48.304;11.896;2022-08-25T10:34:39;96258.00;;;26.06;56.55
45345;BME280;31078;48.304;11.896;2022-08-25T10:37:18;96255.78;;;26.21;56.35
45345;BME280;31078;48.304;11.896;2022-08-25T10:39:56;96255.16;;;26.33;55.92
45345;BME280;31078;48.304;11.896;2022-08-25T10:42:35;96243.22;;;26.33;54.29
45345;BME280;31078;48.304;11.896;2022-08-25T10:45:18;96249.44;;;26.17;54.98
45345;BME280;31078;48.304;11.896;2022-08-25T10:50:55;96238.59;;;26.22;54.46
45345;BME280;31078;48.304;11.896;2022-08-25T10:53:28;96238.38;;;26.37;55.02
45345;BME280;31078;48.304;11.896;2022-08-25T10:56:07;96241.81;;;26.21;56.75
45345;BME280;31078;48.304;11.896;2022-08-25T10:59:12;96245.50;;;26.14;53.06
45345;BME280;31078;48.304;11.896;2022-08-25T11:02:07;96242.59;;;26.21;54.17
45345;BME280;31078;48.304;11.896;2022-08-25T11:04:41;96243.19;;;26.09;53.59
45345;BME280;31078;48.304;11.896;2022-08-25T11:07:13;96238.06;;;26.04;55.13
45345;BME280;31078;48.304;11.896;2022-08-25T11:09:49;96232.13;;;26.02;53.80
45345;BME280;31078;48.304;11.896;2022-08-25T11:12:20;96232.41;;;26.11;53.60
45345;BME280;31078;48.304;11.896;2022-08-25T11:14:55;96230.97;;;26.26;54.33
45345;BME280;31078;48.304;11.896;2022-08-25T11:17:25;96233.75;;;26.26;52.91
45345;BME280;31078;48.304;11.896;2022-08-25T11:19:58;96218.38;;;26.42;55.04
45345;BME280;31078;48.304;11.896;2022-08-25T11:22:33;96216.28;;;26.46;54.87
45345;BME280;31078;48.304;11.896;2022-08-25T11:25:10;96229.56;;;26.38;53.31
45345;BME280;31078;48.304;11.896;2022-08-25T11:27:45;96215.41;;;26.25;51.72
45345;BME280;31078;48.304;11.896;2022-08-25T11:30:15;96214.88;;;26.34;51.39
45345;BME280;31078;48.304;11.896;2022-08-25T11:32:45;96221.72;;;26.29;51.30
45345;BME280;31078;48.304;11.896;2022-08-25T11:35:15;96220.88;;;26.33;51.30
45345;BME280;31078;48.304;11.896;2022-08-25T11:37:46;96208.69;;;26.46;52.58
45345;BME280;31078;48.304;11.896;2022-08-25T11:40:31;96208.00;;;26.62;52.92
45345;BME280;31078;48.304;11.896;2022-08-25T11:43:10;96203.59;;;26.65;53.45
45345;BME280;31078;48.304;11.896;2022-08-25T11:45:50;96208.25;;;26.71;52.40
45345;BME280;31078;48.304;11.896;2022-08-25T11:48:27;96209.72;;;26.79;51.43
45345;BME280;31078;48.304;11.896;2022-08-25T11:50:59;96201.56;;;26.89;52.07
45345;BME280;31078;48.304;11.896;2022-08-25T11:53:29;96197.34;;;27.00;52.00
45345;BME280;31078;48.304;11.896;2022-08-25T11:55:58;96202.25;;;26.93;50.58
45345;BME280;31078;48.304;11.896;2022-08-25T11:58:32;96188.50;;;27.02;50.90
45345;BME280;31078;48.304;11.896;2022-08-25T12:01:04;96202.97;;;26.97;50.59
45345;BME280;31078;48.304;11.896;2022-08-25T12:03:51;96180.78;;;26.90;53.78
45345;BME280;31078;48.304;11.896;2022-08-25T12:06:27;96190.44;;;26.85;51.42
45345;BME280;31078;48.304;11.896;2022-08-25T12:09:21;96189.28;;;26.83;51.39
45345;BME280;31078;48.304;11.896;2022-08-25T12:11:54;96186.78;;;26.68;49.64
45345;BME280;31078;48.304;11.896;2022-08-25T12:14:46;96189.34;;;26.59;48.90
45345;BME280;31078;48.304;11.896;2022-08-25T12:17:19;96182.28;;;26.51;50.33
45345;BME280;31078;48.304;11.896;2022-08-25T12:19:55;96186.22;;;26.30;50.60
45345;BME280;31078;48.304;11.896;2022-08-25T12:22:40;96184.00;;;26.45;51.99
45345;BME280;31078;48.304;11.896;2022-08-25T12:28:25;96184.88;;;26.42;53.06
45345;BME280;31078;48.304;11.896;2022-08-25T12:30:58;96182.25;;;26.31;51.37
45345;BME280;31078;48.304;11.896;2022-08-25T12:33:33;96177.63;;;26.21;51.37
45345;BME280;31078;48.304;11.896;2022-08-25T12:36:05;96171.97;;;26.24;51.22
45345;BME280;31078;48.304;11.896;2022-08-25T12:38:36;96179.44;;;26.31;51.46
45345;BME280;31078;48.304;11.896;2022-08-25T12:41:07;96180.44;;;26.41;52.29
45345;BME280;31078;48.304;11.896;2022-08-25T12:43:38;96179.28;;;26.42;52.30
45345;BME280;31078;48.304;11.896;2022-08-25T12:46:35;96177.44;;;26.55;51.87
45345;BME280;31078;48.304;11.896;2022-08-25T12:49:04;96178.03;;;26.66;51.99
45345;BME280;31078;48.304;11.896;2022-08-25T12:51:53;96170.72;;;26.72;51.29
45345;BME280;31078;48.304;11.896;2022-08-25T12:54:24;96171.88;;;26.75;50.64
45345;BME280;31078;48.304;11.896;2022-08-25T12:56:56;96171.31;;;26.84;52.76
45345;BME280;31078;48.304;11.896;2022-08-25T12:59:35;96166.31;;;26.95;51.89
45345;BME280;31078;48.304;11.896;2022-08-25T13:02:45;96158.38;;;27.13;51.53
45345;BME280;31078;48.304;11.896;2022-08-25T13:08:28;96162.50;;;27.25;51.03
45345;BME280;31078;48.304;11.896;2022-08-25T13:11:08;96155.44;;;27.20;49.53
45345;BME280;31078;48.304;11.896;2022-08-25T13:13:41;96152.53;;;27.24;50.76
45345;BME280;31078;48.304;11.896;2022-08-25T13:16:17;96158.91;;;27.24;50.50
45345;BME280;31078;48.304;11.896;2022-08-25T13:18:44;96147.69;;;27.08;48.66
45345;BME280;31078;48.304;11.896;2022-08-25T13:21:15;96141.81;;;27.22;49.20
45345;BME280;31078;48.304;11.896;2022-08-25T13:23:43;96135.13;;;27.36;49.73
45345;BME280;31078;48.304;11.896;2022-08-25T13:26:13;96135.03;;;27.40;49.94
45345;BME280;31078;48.304;11.896;2022-08-25T13:28:41;96137.66;;;27.30;51.07
45345;BME280;31078;48.304;11.896;2022-08-25T13:31:16;96134.47;;;27.28;48.51
45345;BME280;31078;48.304;11.896;2022-08-25T13:33:50;96132.75;;;27.35;49.50
45345;BME280;31078;48.304;11.896;2022-08-25T13:36:17;96138.00;;;27.33;50.59
45345;BME280;31078;48.304;11.896;2022-08-25T13:39:11;96135.19;;;27.33;49.87
45345;BME280;31078;48.304;11.896;2022-08-25T13:41:43;96122.50;;;27.28;48.97
45345;BME280;31078;48.304;11.896;2022-08-25T13:44:12;96127.47;;;27.20;48.98
45345;BME280;31078;48.304;11.896;2022-08-25T13:46:40;96115.97;;;27.35;49.99
45345;BME280;31078;48.304;11.896;2022-08-25T13:49:08;96118.41;;;27.33;50.01
45345;BME280;31078;48.304;11.896;2022-08-25T13:51:36;96121.56;;;27.35;49.54